createdAt,value
2022-08-28T00:00:14.129Z,101790.09
2022-08-28T00:02:41.922Z,101789.22
2022-08-28T00:05:11.635Z,101791.00
2022-08-28T00:07:38.911Z,101788.34
2022-08-28T00:10:09.333Z,101794.56
2022-08-28T00:12:38.559Z,101800.78
2022-08-28T00:15:10.528Z,101800.78
2022-08-28T00:17:40.327Z,101797.22
2022-08-28T00:20:10.309Z,101796.34
2022-08-28T00:22:38.873Z,101797.25
2022-08-28T00:25:09.319Z,101798.13
2022-08-28T00:27:55.614Z,101799.03
2022-08-28T00:30:43.602Z,101801.72
2022-08-28T00:33:22.471Z,101802.56
2022-08-28T00:35:51.124Z,101806.13
2022-08-28T00:38:20.071Z,101812.34
2022-08-28T00:40:51.894Z,101804.34
2022-08-28T00:43:38.551Z,101804.34
2022-08-28T00:46:20.075Z,101818.53
2022-08-28T00:48:47.616Z,101807.00
2022-08-28T00:51:36.830Z,101813.22
2022-08-28T00:54:07.924Z,101809.69
2022-08-28T00:56:38.215Z,101814.13
2022-08-28T00:59:11.964Z,101820.34
2022-08-28T01:01:39.440Z,101814.13
2022-08-28T01:04:07.412Z,101815.88
2022-08-28T01:06:36.146Z,101817.66
2022-08-28T01:09:04.960Z,101810.53
2022-08-28T01:11:32.634Z,101815.00
2022-08-28T01:14:03.176Z,101819.41
2022-08-28T01:16:33.913Z,101817.66
2022-08-28T01:19:07.924Z,101820.31
2022-08-28T01:21:50.726Z,101818.53
2022-08-28T01:24:19.355Z,101818.53
2022-08-28T01:26:47.256Z,101815.88
2022-08-28T01:29:15.011Z,101823.84
2022-08-28T01:31:43.025Z,101818.53
2022-08-28T01:34:13.118Z,101827.41
2022-08-28T01:36:42.237Z,101824.75
2022-08-28T01:39:18.433Z,101823.81
2022-08-28T01:41:51.863Z,101826.47
2022-08-28T01:44:26.000Z,101827.38
2022-08-28T01:46:56.961Z,101826.47
2022-08-28T01:49:25.283Z,101833.56
2022-08-28T01:51:52.446Z,101831.78
2022-08-28T01:54:22.155Z,101829.13
2022-08-28T01:56:49.641Z,101836.22
2022-08-28T01:59:17.000Z,101835.31
2022-08-28T02:01:44.814Z,101836.13
2022-08-28T02:04:13.255Z,101838.78
2022-08-28T02:06:43.535Z,101831.69
2022-08-28T02:09:14.468Z,101833.44
2022-08-28T02:11:46.793Z,101836.06
2022-08-28T02:14:14.606Z,101833.38
2022-08-28T02:16:41.970Z,101835.13
2022-08-28T02:19:09.478Z,101830.69
2022-08-28T02:21:36.568Z,101838.66
2022-08-28T02:24:04.964Z,101837.75
2022-08-28T02:26:33.339Z,101838.63
2022-08-28T02:29:00.706Z,101838.63
2022-08-28T02:31:27.998Z,101837.66
2022-08-28T02:33:55.946Z,101835.00
2022-08-28T02:36:24.011Z,101836.75
2022-08-28T02:38:57.449Z,101836.75
2022-08-28T02:41:25.306Z,101842.06
2022-08-28T02:43:52.506Z,101838.50
2022-08-28T02:46:19.595Z,101834.94
2022-08-28T02:48:47.032Z,101846.41
2022-08-28T02:51:14.966Z,101841.91
2022-08-28T02:53:43.014Z,101847.22
2022-08-28T02:56:10.500Z,101854.28
2022-08-28T02:58:39.300Z,101853.41
2022-08-28T03:01:10.927Z,101848.97
2022-08-28T03:03:40.798Z,101846.31
2022-08-28T03:06:09.182Z,101849.88
2022-08-28T03:08:36.249Z,101843.59
2022-08-28T03:11:03.295Z,101847.13
2022-08-28T03:13:30.972Z,101846.22
2022-08-28T03:15:58.350Z,101847.09
2022-08-28T03:18:30.259Z,101851.50
2022-08-28T03:20:57.604Z,101854.09
2022-08-28T03:23:27.781Z,101854.94
2022-08-28T03:26:14.856Z,101854.03
2022-08-28T03:28:49.635Z,101860.19
2022-08-28T03:31:20.961Z,101867.22
2022-08-28T03:33:48.570Z,101867.25
2022-08-28T03:36:24.032Z,101875.19
2022-08-28T03:38:53.347Z,101878.63
2022-08-28T03:41:23.597Z,101876.91
2022-08-28T03:43:51.444Z,101874.19
2022-08-28T03:46:23.692Z,101875.97
2022-08-28T03:48:52.461Z,101871.53
2022-08-28T03:51:29.356Z,101886.53
2022-08-28T03:53:58.895Z,101878.56
2022-08-28T03:56:29.028Z,101874.13
2022-08-28T03:59:01.489Z,101877.63
2022-08-28T04:01:28.891Z,101876.72
2022-08-28T04:03:56.460Z,101873.13
2022-08-28T04:06:23.654Z,101880.19
2022-08-28T04:08:51.145Z,101874.81
2022-08-28T04:11:18.624Z,101881.06
2022-08-28T04:13:45.749Z,101875.75
2022-08-28T04:16:19.497Z,101884.59
2022-08-28T04:18:49.202Z,101880.06
2022-08-28T04:21:27.166Z,101888.16
2022-08-28T04:23:55.170Z,101885.41
2022-08-28T04:26:25.882Z,101883.63
2022-08-28T04:28:55.295Z,101890.69
2022-08-28T04:31:31.607Z,101899.44
2022-08-28T04:34:05.978Z,101888.78
2022-08-28T04:36:36.114Z,101892.28
2022-08-28T04:39:06.097Z,101894.84
2022-08-28T04:41:33.115Z,101894.84
2022-08-28T04:44:00.112Z,101901.91
2022-08-28T04:46:30.971Z,101895.72
2022-08-28T04:48:58.648Z,101885.03
2022-08-28T04:51:26.432Z,101886.78
2022-08-28T04:53:53.471Z,101896.47
2022-08-28T04:56:20.547Z,101892.88
2022-08-28T04:58:47.705Z,101895.53
2022-08-28T05:01:20.024Z,101894.66
2022-08-28T05:03:51.946Z,101899.94
2022-08-28T05:06:18.945Z,101906.97
2022-08-28T05:08:45.958Z,101906.97
2022-08-28T05:11:33.475Z,101914.94
2022-08-28T05:14:05.507Z,101913.19
2022-08-28T05:16:39.468Z,101914.06
2022-08-28T05:19:06.508Z,101913.16
2022-08-28T05:21:33.571Z,101916.66
2022-08-28T05:24:00.966Z,101926.38
2022-08-28T05:26:29.844Z,101921.13
2022-08-28T05:28:59.372Z,101929.13
2022-08-28T05:31:29.081Z,101930.03
2022-08-28T05:34:04.669Z,101928.28
2022-08-28T05:36:36.787Z,101933.59
2022-08-28T05:39:08.106Z,101938.06
2022-08-28T05:41:35.979Z,101932.75
2022-08-28T05:44:07.965Z,101933.66
2022-08-28T05:46:37.591Z,101939.88
2022-08-28T05:49:09.144Z,101934.56
2022-08-28T05:51:40.204Z,101926.53
2022-08-28T05:54:07.309Z,101924.88
2022-08-28T05:56:38.660Z,101924.00
2022-08-28T05:59:07.026Z,101929.38
2022-08-28T06:01:39.808Z,101933.84
2022-08-28T06:04:12.373Z,101931.19
2022-08-28T06:06:41.174Z,101931.19
2022-08-28T06:09:20.058Z,101937.44
2022-08-28T06:11:48.037Z,101940.16
2022-08-28T06:14:20.684Z,101942.91
2022-08-28T06:16:52.989Z,101946.53
2022-08-28T06:19:23.072Z,101943.06
2022-08-28T06:21:54.287Z,101943.13
2022-08-28T06:24:21.284Z,101947.63
2022-08-28T06:26:48.329Z,101947.75
2022-08-28T06:29:18.423Z,101952.22
2022-08-28T06:31:54.833Z,101950.56
2022-08-28T06:34:22.347Z,101947.06
2022-08-28T06:36:53.635Z,101951.59
2022-08-28T06:39:22.088Z,101962.31
2022-08-28T06:41:49.367Z,101958.06
2022-08-28T06:44:20.537Z,101959.00
2022-08-28T06:46:51.563Z,101966.03
2022-08-28T06:49:19.063Z,101960.84
2022-08-28T06:51:46.142Z,101964.44
2022-08-28T06:54:18.328Z,101962.75
2022-08-28T06:56:48.893Z,101975.28
2022-08-28T06:59:15.926Z,101965.56
2022-08-28T07:01:43.102Z,101959.47
2022-08-28T07:04:13.728Z,101971.03
2022-08-28T07:06:46.855Z,101958.63
2022-08-28T07:09:14.293Z,101956.94
2022-08-28T07:11:43.704Z,101969.38
2022-08-28T07:14:10.880Z,101965.00
2022-08-28T07:16:39.379Z,101964.13
2022-08-28T07:19:10.520Z,101964.16
2022-08-28T07:21:41.940Z,101961.53
2022-08-28T07:24:12.139Z,101960.63
2022-08-28T07:26:41.163Z,101970.44
2022-08-28T07:29:10.867Z,101973.09
2022-08-28T07:31:44.031Z,101966.88
2022-08-28T07:34:14.997Z,101975.78
2022-08-28T07:36:43.153Z,101980.19
2022-08-28T07:39:13.509Z,101977.50
2022-08-28T07:41:42.909Z,101981.94
2022-08-28T07:44:31.668Z,101984.59
2022-08-28T07:47:04.189Z,101988.16
2022-08-28T07:49:33.851Z,101989.91
2022-08-28T07:52:02.273Z,101996.06
2022-08-28T07:54:29.316Z,101994.28
2022-08-28T07:56:56.288Z,101992.50
2022-08-28T07:59:23.727Z,101996.88
2022-08-28T08:01:52.246Z,101999.53
2022-08-28T08:04:21.656Z,101986.16
2022-08-28T08:06:51.457Z,101989.69
2022-08-28T08:09:22.308Z,101989.69
2022-08-28T08:11:49.763Z,101994.97
2022-08-28T08:14:17.836Z,101999.28
2022-08-28T08:16:46.197Z,101996.56
2022-08-28T08:19:14.645Z,101998.25
2022-08-28T08:21:45.707Z,102000.84
2022-08-28T08:24:17.982Z,101999.06
2022-08-28T08:27:00.366Z,102005.34
2022-08-28T08:29:35.907Z,102000.81
2022-08-28T08:32:07.935Z,102003.38
2022-08-28T08:34:41.653Z,102001.50
2022-08-28T08:37:10.489Z,101993.47
2022-08-28T08:39:38.104Z,101997.88
2022-08-28T08:42:18.660Z,101997.03
2022-08-28T08:44:48.367Z,101988.97
2022-08-28T08:47:49.271Z,101997.03
2022-08-28T08:50:35.536Z,101996.06
2022-08-28T08:53:46.829Z,101990.63
2022-08-28T08:56:17.085Z,101990.44
2022-08-28T08:58:52.485Z,101985.16
2022-08-28T09:02:05.264Z,101983.22
2022-08-28T09:04:40.877Z,101987.56
2022-08-28T09:07:18.787Z,101985.69
2022-08-28T09:09:53.714Z,101974.84
2022-08-28T09:12:26.162Z,101981.13
2022-08-28T09:15:08.792Z,101988.97
2022-08-28T09:17:44.911Z,101984.56
2022-08-28T09:20:18.444Z,101989.94
2022-08-28T09:22:50.127Z,101985.50
2022-08-28T09:25:44.972Z,101995.97
2022-08-28T09:28:19.908Z,102003.25
2022-08-28T09:30:57.582Z,101997.84
2022-08-28T09:33:38.015Z,101993.44
2022-08-28T09:36:34.337Z,101988.88
2022-08-28T09:39:10.842Z,101992.38
2022-08-28T09:42:37.222Z,101986.75
2022-08-28T09:45:30.258Z,101996.56
2022-08-28T09:47:58.962Z,101986.59
2022-08-28T09:50:38.931Z,101993.63
2022-08-28T09:53:11.740Z,101994.50
2022-08-28T09:55:55.481Z,101993.50
2022-08-28T09:58:28.061Z,101994.28
2022-08-28T10:01:25.371Z,101992.34
2022-08-28T10:04:35.294Z,101989.69
2022-08-28T10:07:15.384Z,101994.94
2022-08-28T10:09:51.085Z,101999.50
2022-08-28T10:12:41.923Z,101984.41
2022-08-28T10:15:49.584Z,101984.41
2022-08-28T10:18:30.394Z,101989.81
2022-08-28T10:21:32.096Z,101983.00
2022-08-28T10:24:31.287Z,101983.91
2022-08-28T10:27:38.338Z,101974.88
2022-08-28T10:30:40.962Z,101972.78
2022-08-28T10:33:45.644Z,101984.16
2022-08-28T10:36:34.780Z,101969.75
2022-08-28T10:39:59.124Z,101967.72
2022-08-28T10:42:50.892Z,101979.81
2022-08-28T10:45:23.806Z,101986.94
2022-08-28T10:48:08.720Z,101989.22
2022-08-28T10:50:50.647Z,101986.09
2022-08-28T10:53:30.338Z,101991.38
2022-08-28T10:56:10.614Z,101988.28
2022-08-28T10:58:40.922Z,101988.19
2022-08-28T11:01:23.709Z,101993.44
2022-08-28T11:03:52.140Z,101982.03
2022-08-28T11:06:39.029Z,101977.53
2022-08-28T11:09:35.996Z,101984.81
2022-08-28T11:12:36.997Z,101984.06
2022-08-28T11:15:48.055Z,101988.84
2022-08-28T11:18:15.800Z,101990.16
2022-08-28T11:21:15.246Z,101989.69
2022-08-28T11:24:00.147Z,101986.34
2022-08-28T11:26:41.542Z,101981.69
2022-08-28T11:29:08.904Z,101985.94
2022-08-28T11:31:40.243Z,101979.44
2022-08-28T11:34:07.818Z,101986.16
2022-08-28T11:36:34.727Z,101990.94
2022-08-28T11:39:13.632Z,101989.44
2022-08-28T11:45:01.471Z,101985.47
2022-08-28T11:47:56.640Z,101984.66
2022-08-28T11:50:29.946Z,101990.91
2022-08-28T11:53:36.551Z,101993.59
2022-08-28T11:56:44.519Z,101991.44
2022-08-28T11:59:35.343Z,101985.22
2022-08-28T12:02:39.431Z,101992.78
2022-08-28T12:05:15.697Z,101980.00
2022-08-28T12:07:47.004Z,101983.09
2022-08-28T12:10:22.736Z,101975.50
2022-08-28T12:12:55.622Z,101969.81
2022-08-28T12:15:28.682Z,101975.44
2022-08-28T12:18:14.325Z,101964.50
2022-08-28T12:21:04.246Z,101960.41
2022-08-28T12:23:45.050Z,101969.22
2022-08-28T12:26:41.772Z,101981.00
2022-08-28T12:29:34.604Z,101974.19
2022-08-28T12:32:26.537Z,101975.75
2022-08-28T12:34:59.435Z,101964.50
2022-08-28T12:37:42.926Z,101971.97
2022-08-28T12:40:41.594Z,101958.84
2022-08-28T12:43:15.597Z,101972.06
2022-08-28T12:45:49.825Z,101967.94
2022-08-28T12:48:20.925Z,101969.31
2022-08-28T12:50:56.619Z,101964.94
2022-08-28T12:53:26.136Z,101957.25
2022-08-28T12:55:54.191Z,101951.03
2022-08-28T12:58:39.928Z,101965.41
2022-08-28T13:01:32.586Z,101965.38
2022-08-28T13:04:19.875Z,101958.97
2022-08-28T13:06:46.866Z,101958.63
2022-08-28T13:09:18.734Z,101968.13
2022-08-28T13:11:50.335Z,101961.72
2022-08-28T13:14:44.173Z,101947.59
2022-08-28T13:17:14.005Z,101949.88
2022-08-28T13:19:41.482Z,101941.94
2022-08-28T13:22:39.692Z,101941.81
2022-08-28T13:25:08.183Z,101948.47
2022-08-28T13:27:36.075Z,101934.34
2022-08-28T13:30:20.981Z,101942.91
2022-08-28T13:33:01.941Z,101943.44
2022-08-28T13:35:38.917Z,101945.19
2022-08-28T13:38:16.551Z,101934.41
2022-08-28T13:41:03.630Z,101946.91
2022-08-28T13:43:45.930Z,101942.13
2022-08-28T13:46:13.911Z,101931.47
2022-08-28T13:48:41.004Z,101922.25
2022-08-28T13:51:14.295Z,101920.16
2022-08-28T13:53:48.238Z,101928.28
2022-08-28T13:56:17.358Z,101927.22
2022-08-28T13:58:44.734Z,101920.81
2022-08-28T14:01:44.579Z,101917.09
2022-08-28T14:04:13.115Z,101919.03
2022-08-28T14:06:44.051Z,101917.97
2022-08-28T14:09:17.606Z,101917.50
2022-08-28T14:11:49.730Z,101920.19
2022-08-28T14:14:18.048Z,101911.63
2022-08-28T14:16:45.797Z,101908.88
2022-08-28T14:19:13.464Z,101904.91
2022-08-28T14:21:41.438Z,101910.09
2022-08-28T14:24:08.717Z,101900.41
2022-08-28T14:26:36.229Z,101905.84
2022-08-28T14:29:07.483Z,101903.81
2022-08-28T14:31:36.892Z,101905.44
2022-08-28T14:34:05.534Z,101899.81
2022-08-28T14:36:33.271Z,101901.25
2022-08-28T14:39:06.188Z,101902.41
2022-08-28T14:41:34.725Z,101902.19
2022-08-28T14:44:02.239Z,101903.88
2022-08-28T14:46:35.936Z,101898.31
2022-08-28T14:49:08.479Z,101900.97
2022-08-28T14:51:38.431Z,101895.69
2022-08-28T14:54:06.599Z,101903.63
2022-08-28T14:56:34.367Z,101888.84
2022-08-28T14:59:04.061Z,101886.19
2022-08-28T15:01:40.358Z,101898.75
2022-08-28T15:04:12.386Z,101886.16
2022-08-28T15:06:42.513Z,101883.84
2022-08-28T15:09:12.332Z,101890.72
2022-08-28T15:11:40.134Z,101893.59
2022-08-28T15:14:07.241Z,101898.56
2022-08-28T15:16:39.238Z,101890.03
2022-08-28T15:19:18.515Z,101895.25
2022-08-28T15:21:51.454Z,101888.25
2022-08-28T15:24:26.344Z,101887.38
2022-08-28T15:26:53.909Z,101883.44
2022-08-28T15:29:21.247Z,101879.16
2022-08-28T15:31:50.318Z,101880.94
2022-08-28T15:34:28.427Z,101880.69
2022-08-28T15:36:57.352Z,101880.94
2022-08-28T15:39:47.246Z,101876.47
2022-08-28T15:42:15.339Z,101883.66
2022-08-28T15:44:43.416Z,101879.31
2022-08-28T15:47:12.622Z,101889.63
2022-08-28T15:49:44.739Z,101882.88
2022-08-28T15:52:18.262Z,101892.44
2022-08-28T15:54:45.601Z,101883.63
2022-08-28T15:57:14.661Z,101891.66
2022-08-28T15:59:49.897Z,101895.31
2022-08-28T16:02:23.364Z,101889.03
2022-08-28T16:04:51.569Z,101882.97
2022-08-28T16:07:21.576Z,101882.88
2022-08-28T16:09:49.499Z,101883.84
2022-08-28T16:12:17.278Z,101890.94
2022-08-28T16:14:44.531Z,101878.94
2022-08-28T16:17:11.744Z,101883.31
2022-08-28T16:19:40.812Z,101888.72
2022-08-28T16:22:10.567Z,101873.25
2022-08-28T16:24:38.225Z,101881.50
2022-08-28T16:29:52.947Z,101885.38
2022-08-28T16:32:20.407Z,101886.09
2022-08-28T16:34:47.886Z,101889.66
2022-08-28T16:35:49.535Z,101883.72
2022-08-28T16:37:18.602Z,101891.34
2022-08-28T16:39:48.041Z,101893.94
2022-08-28T16:42:15.557Z,101887.97
2022-08-28T16:44:42.575Z,101893.59
2022-08-28T16:47:09.869Z,101895.47
2022-08-28T16:49:37.010Z,101898.34
2022-08-28T16:52:04.136Z,101892.81
2022-08-28T16:54:31.290Z,101889.97
2022-08-28T16:56:58.482Z,101899.00
2022-08-28T16:59:25.611Z,101890.09
2022-08-28T17:01:53.094Z,101900.44
2022-08-28T17:04:21.757Z,101900.59
2022-08-28T17:06:49.258Z,101901.59
2022-08-28T17:09:16.317Z,101896.47
2022-08-28T17:11:43.369Z,101893.78
2022-08-28T17:14:11.994Z,101899.38
2022-08-28T17:16:39.187Z,101888.94
2022-08-28T17:19:06.256Z,101895.44
2022-08-28T17:21:52.003Z,101907.41
2022-08-28T17:24:19.384Z,101892.41
2022-08-28T17:26:47.252Z,101903.44
2022-08-28T17:29:14.405Z,101901.81
2022-08-28T17:31:41.774Z,101896.63
2022-08-28T17:34:09.157Z,101897.63
2022-08-28T17:36:38.322Z,101895.88
2022-08-28T17:39:11.769Z,101893.28
2022-08-28T17:41:41.097Z,101885.31
2022-08-28T17:44:08.557Z,101893.47
2022-08-28T17:46:38.038Z,101888.13
2022-08-28T17:51:43.706Z,101896.53
2022-08-28T17:54:14.004Z,101895.84
2022-08-28T17:56:41.858Z,101896.91
2022-08-28T17:59:12.566Z,101895.34
2022-08-28T18:01:41.052Z,101906.16
2022-08-28T18:04:09.068Z,101899.13
2022-08-28T18:06:36.652Z,101898.41
2022-08-28T18:09:06.003Z,101902.00
2022-08-28T18:11:33.247Z,101899.34
2022-08-28T18:14:00.822Z,101898.66
2022-08-28T18:16:31.297Z,101901.44
2022-08-28T18:19:00.344Z,101901.56
2022-08-28T18:21:28.675Z,101905.25
2022-08-28T18:23:56.046Z,101891.09
2022-08-28T18:26:23.538Z,101894.78
2022-08-28T18:28:51.229Z,101900.22
2022-08-28T18:31:19.687Z,101901.13
2022-08-28T18:33:46.774Z,101898.53
2022-08-28T18:36:15.256Z,101913.69
2022-08-28T18:38:43.587Z,101916.47
2022-08-28T18:41:12.090Z,101916.47
2022-08-28T18:43:39.503Z,101916.47
2022-08-28T18:46:09.275Z,101915.69
2022-08-28T18:48:37.953Z,101926.44
2022-08-28T18:51:11.684Z,101924.78
2022-08-28T18:53:39.335Z,101931.94
2022-08-28T18:56:12.162Z,101932.97
2022-08-28T18:58:41.763Z,101933.91
2022-08-28T19:01:10.499Z,101937.56
2022-08-28T19:03:37.893Z,101939.38
2022-08-28T19:06:06.409Z,101945.63
2022-08-28T19:08:35.346Z,101948.34
2022-08-28T19:11:08.881Z,101947.53
2022-08-28T19:13:36.704Z,101957.34
2022-08-28T19:16:04.787Z,101962.75
2022-08-28T19:18:31.919Z,101969.03
2022-08-28T19:21:09.214Z,101966.41
2022-08-28T19:23:37.184Z,101978.88
2022-08-28T19:26:06.718Z,101986.94
2022-08-28T19:28:35.479Z,101980.72
2022-08-28T19:31:04.495Z,101984.31
2022-08-28T19:33:32.289Z,101984.34
2022-08-28T19:35:59.532Z,101983.44
2022-08-28T19:38:26.568Z,101984.38
2022-08-28T19:40:58.030Z,101988.84
2022-08-28T19:43:25.371Z,101987.94
2022-08-28T19:46:14.097Z,101979.06
2022-08-28T19:48:48.190Z,101988.00
2022-08-28T19:51:22.389Z,101992.47
2022-08-28T19:53:58.348Z,101988.94
2022-08-28T19:56:28.689Z,101989.84
2022-08-28T19:58:59.106Z,101994.31
2022-08-28T20:01:37.825Z,101986.31
2022-08-28T20:04:07.941Z,101998.78
2022-08-28T20:06:36.696Z,101996.13
2022-08-28T20:09:08.315Z,102001.47
2022-08-28T20:11:39.992Z,102002.38
2022-08-28T20:14:07.233Z,102005.03
2022-08-28T20:16:42.044Z,102007.72
2022-08-28T20:19:11.450Z,102005.97
2022-08-28T20:21:41.203Z,102009.53
2022-08-28T20:24:13.768Z,102009.50
2022-08-28T20:26:41.398Z,102019.28
2022-08-28T20:29:10.015Z,102017.50
2022-08-28T20:31:43.935Z,102018.41
2022-08-28T20:34:12.600Z,102023.72
2022-08-28T20:36:40.418Z,102031.72
2022-08-28T20:39:09.404Z,102030.84
2022-08-28T20:41:39.384Z,102043.28
2022-08-28T20:44:08.043Z,102038.84
2022-08-28T20:46:40.927Z,102046.84
2022-08-28T20:49:12.054Z,102026.41
2022-08-28T20:51:53.320Z,102034.41
2022-08-28T20:54:28.684Z,102037.09
2022-08-28T20:56:58.203Z,102041.50
2022-08-28T20:59:28.907Z,102037.06
2022-08-28T21:02:02.842Z,102041.50
2022-08-28T21:04:30.471Z,102045.06
2022-08-28T21:06:58.104Z,102046.84
2022-08-28T21:09:43.963Z,102048.59
2022-08-28T21:12:12.825Z,102043.22
2022-08-28T21:14:40.329Z,102045.00
2022-08-28T21:17:07.566Z,102048.56
2022-08-28T21:19:40.151Z,102037.03
2022-08-28T21:22:07.836Z,102032.56
2022-08-28T21:24:35.627Z,102037.00
2022-08-28T21:27:02.924Z,102034.34
2022-08-28T21:29:30.423Z,102032.53
2022-08-28T21:31:57.428Z,102036.06
2022-08-28T21:34:24.761Z,102040.53
2022-08-28T21:36:51.892Z,102040.53
2022-08-28T21:39:23.479Z,102048.50
2022-08-28T21:41:51.235Z,102046.72
2022-08-28T21:44:18.667Z,102043.13
2022-08-28T21:46:46.017Z,102037.81
2022-08-28T21:49:13.203Z,102053.78
2022-08-28T21:51:40.323Z,102042.25
2022-08-28T21:54:07.637Z,102043.13
2022-08-28T21:56:34.681Z,102044.91
2022-08-28T21:59:02.140Z,102043.09
2022-08-28T22:01:29.363Z,102039.56
2022-08-28T22:03:57.109Z,102046.66
2022-08-28T22:06:26.504Z,102043.97
2022-08-28T22:08:55.143Z,102046.63
2022-08-28T22:11:25.199Z,102047.47
2022-08-28T22:13:54.656Z,102047.47
2022-08-28T22:16:22.224Z,102046.56
2022-08-28T22:18:49.912Z,102045.66
2022-08-28T22:21:40.635Z,102048.28
2022-08-28T22:24:10.427Z,102058.88
2022-08-28T22:26:37.952Z,102058.88
2022-08-28T22:29:05.883Z,102052.63
2022-08-28T22:31:33.047Z,102051.75
2022-08-28T22:34:00.078Z,102054.38
2022-08-28T22:36:29.120Z,102052.56
2022-08-28T22:38:56.873Z,102067.53
2022-08-28T22:41:24.435Z,102060.44
2022-08-28T22:43:53.585Z,102059.53
2022-08-28T22:46:21.104Z,102079.03
2022-08-28T22:48:48.815Z,102073.72
2022-08-28T22:51:18.691Z,102076.38
2022-08-28T22:53:47.371Z,102079.91
2022-08-28T22:56:17.128Z,102074.59
2022-08-28T22:58:44.504Z,102079.88
2022-08-28T23:01:17.560Z,102073.66
2022-08-28T23:03:45.641Z,102070.06
2022-08-28T23:06:12.707Z,102083.34
2022-08-28T23:08:39.844Z,102077.16
2022-08-28T23:11:07.001Z,102082.47
2022-08-28T23:13:34.550Z,102078.03
2022-08-28T23:16:02.165Z,102079.72
2022-08-28T23:18:41.593Z,102076.16
2022-08-28T23:21:19.576Z,102078.78
2022-08-28T23:23:47.046Z,102082.31
2022-08-28T23:26:15.421Z,102071.69
2022-08-28T23:28:43.160Z,102069.88
2022-08-28T23:31:10.740Z,102067.22
2022-08-28T23:33:37.793Z,102064.53
2022-08-28T23:36:05.501Z,102065.34
2022-08-28T23:38:34.828Z,102059.13
2022-08-28T23:41:02.175Z,102058.22
2022-08-28T23:43:30.005Z,102055.56
2022-08-28T23:45:57.088Z,102060.84
2022-08-28T23:48:25.012Z,102052.00
2022-08-28T23:50:53.001Z,102058.22
2022-08-28T23:53:20.432Z,102065.25
2022-08-28T23:55:49.915Z,102056.41
2022-08-28T23:58:20.773Z,102059.94
